Latest Weather Observations for Katanning RS

IDW60801

Issued at 1:32 pm WST Wednesday 19 June 2019 (issued every 10 minutes, with the page automatically refreshed every 10 minutes)

About weather observations | Map of weather stations | Latest weather observations for WA | Other Formats
Station Details ID: 010916 Name: KATANNING Lat: -33.69 Lon: 117.61 Height: 320.0 m
Data from the previous 72 hours. | See also: Recent months at Katanning RS
Date/Time
WST
Temp
°C
App
Temp
°C
Dew
Point
°C
Rel
Hum
%
Delta-T
°C
Wind Press
QNH
hPa
Press
MSL
hPa
Rain since
9am
mm
Dir  Spd
km/h
Gust
km/h
Spd
kts
Gust
kts
19/01:30pm 13.8 11.2 3.0 48 4.9 NNE 6 11 3 6 1023.5 1023.6 0.0
19/01:00pm 14.0 12.3 3.8 50 4.7 N 2 7 1 4 1024.0 1024.1 0.0
19/12:30pm 13.4 11.1 2.9 49 4.7 N 4 7 2 4 1024.5 1024.6 0.0
19/12:00pm 13.0 10.9 3.7 53 4.2 NNW 4 9 2 5 1024.8 1024.9 0.0
19/11:30am 12.7 10.2 3.6 54 4.1 NNW 6 9 3 5 1025.3 1025.4 0.0
19/11:00am 12.2 9.6 4.2 58 3.7 N 7 11 4 6 1025.7 1025.7 0.0
19/10:30am 11.7 9.8 5.1 64 3.1 NNE 4 6 2 3 1025.9 1026.0 0.0
19/10:00am 9.9 8.8 5.1 72 2.2 CALM 0 0 0 0 1026.1 1026.2 0.0
19/09:30am 8.0 6.7 4.2 77 1.7 CALM 0 0 0 0 1025.9 1026.0 0.0
19/09:00am 6.1 4.7 3.3 82 1.2 CALM 0 0 0 0 1025.8 1025.8 0.0
19/08:30am 5.3 3.8 3.0 85 1.0 CALM 0 0 0 0 1025.8 1025.8 0.0
19/08:00am 3.3 1.5 1.5 88 0.7 CALM 0 0 0 0 1025.7 1025.7 0.0
19/07:30am 3.0 0.9 1.4 89 0.6 WSW 2 4 1 2 1025.3 1025.4 0.0
19/07:00am 3.5 1.8 1.9 89 0.6 CALM 0 0 0 0 1024.9 1025.0 0.0
19/06:30am 2.7 0.5 0.9 88 0.7 S 2 6 1 3 1024.8 1024.9 0.0
19/06:00am 3.0 1.2 1.2 88 0.7 CALM 0 0 0 0 1024.6 1024.7 0.0
19/05:30am 2.0 0.0 -0.1 86 0.8 CALM 0 0 0 0 1024.6 1024.7 0.0
19/05:00am 2.6 0.6 0.2 84 0.9 CALM 0 4 0 2 1024.6 1024.7 0.0
19/04:30am 4.6 2.1 1.5 80 1.2 SSW 4 6 2 3 1024.7 1024.8 0.0
19/04:00am 5.6 2.4 2.9 83 1.1 NW 9 13 5 7 1024.8 1024.9 0.0
19/03:30am 5.8 2.6 3.0 82 1.2 NW 9 11 5 6 1025.1 1025.2 0.0
19/03:00am 5.2 1.9 2.7 84 1.0 NW 9 11 5 6 1025.2 1025.3 0.0
19/02:30am 3.9 1.3 0.8 80 1.2 NNE 4 9 2 5 1025.2 1025.3 0.0
19/02:00am 7.3 5.5 3.7 78 1.6 NNW 2 6 1 3 1025.0 1025.1 0.0
19/01:30am 6.5 5.1 3.5 81 1.3 CALM 0 0 0 0 1024.9 1025.0 0.0
19/01:00am 5.0 3.2 1.5 78 1.4 CALM 0 0 0 0 1025.0 1025.1 0.0
19/12:30am 6.4 3.9 1.7 72 1.9 WNW 4 7 2 4 1025.2 1025.3 0.0
19/12:00am 5.9 3.1 1.8 75 1.7 NW 6 7 3 4 1025.4 1025.5 0.0
 
Date/Time
WST
Temp
°C
App
Temp
°C
Dew
Point
°C
Rel
Hum
%
Delta-T
°C
Wind Press
QNH
hPa
Press
MSL
hPa
Rain since
9am
mm
Dir  Spd
km/h
Gust
km/h
Spd
kts
Gust
kts
18/11:30pm 7.4 6.0 3.5 76 1.7 CALM 0 0 0 0 1025.7 1025.7 0.0
18/11:00pm 6.6 4.4 3.2 79 1.4 NW 4 6 2 3 1025.9 1026.0 0.0
18/10:30pm 6.8 5.0 3.4 79 1.5 N 2 4 1 2 1026.0 1026.1 0.0
18/10:00pm 7.7 6.4 4.3 79 1.5 CALM 0 0 0 0 1025.9 1026.0 0.0
18/09:30pm 8.1 6.8 4.3 77 1.7 CALM 0 0 0 0 1025.8 1025.8 0.0
18/09:00pm 8.3 6.4 4.7 78 1.6 WSW 4 9 2 5 1025.8 1025.8 0.0
18/08:30pm 7.8 5.7 4.0 77 1.7 SW 4 6 2 3 1025.8 1025.8 0.0
18/08:00pm 8.5 7.1 3.8 72 2.1 CALM 0 0 0 0 1025.8 1025.8 0.0
18/07:30pm 7.3 5.8 2.8 73 1.9 CALM 0 0 0 0 1026.0 1026.1 0.0
18/07:00pm 9.9 7.8 3.9 66 2.7 W 4 4 2 2 1025.8 1025.8 0.0
18/06:30pm 8.4 7.0 3.3 70 2.2 CALM 0 0 0 0 1025.6 1025.6 0.0
18/06:00pm 10.5 8.4 3.8 63 3.0 W 4 6 2 3 1025.1 1025.2 0.0
18/05:30pm 10.8 9.4 3.8 62 3.2 CALM 0 0 0 0 1024.9 1025.0 0.0
18/05:00pm 11.7 9.3 4.4 61 3.3 SW 6 6 3 3 1024.9 1025.0 0.0
18/04:30pm 12.6 10.0 4.1 56 3.9 W 7 9 4 5 1024.8 1024.9 0.0
18/04:00pm 13.0 9.1 3.4 52 4.3 WSW 13 19 7 10 1025.0 1025.1 0.0
18/03:30pm 13.5 9.1 2.7 48 4.9 WSW 15 22 8 12 1025.0 1025.1 0.0
18/03:00pm 13.7 10.2 3.5 50 4.7 SW 11 15 6 8 1024.9 1025.0 0.0
18/02:30pm 13.6 10.7 2.8 48 4.9 W 7 17 4 9 1024.9 1025.0 0.0
18/02:00pm 13.7 10.5 3.2 49 4.8 WNW 9 13 5 7 1025.0 1025.1 0.0
18/01:30pm 13.4 10.2 3.2 50 4.6 NW 9 15 5 8 1025.2 1025.3 0.0
18/01:00pm 13.1 10.3 3.2 51 4.5 NW 7 15 4 8 1025.7 1025.7 0.0
18/12:30pm 12.8 9.6 2.9 51 4.4 WNW 9 19 5 10 1026.2 1026.3 0.0
18/12:00pm 12.8 10.2 3.2 52 4.3 NNW 6 11 3 6 1026.8 1026.9 0.0
18/11:30am 12.1 9.2 4.6 60 3.5 N 9 15 5 8 1027.2 1027.3 0.0
18/11:00am 11.1 8.3 5.2 67 2.7 N 9 15 5 8 1027.8 1027.9 0.0
18/10:30am 9.8 7.3 4.6 70 2.4 NNW 7 11 4 6 1028.4 1028.5 0.0
18/10:00am 9.3 7.1 5.3 76 1.8 NNE 6 9 3 5 1028.6 1028.8 0.0
18/09:30am 9.0 7.5 5.0 76 1.8 NNW 2 7 1 4 1028.9 1029.0 0.0
18/09:00am 7.3 5.3 4.4 82 1.3 NNW 4 6 2 3 1028.9 1029.0 0.0
18/08:30am 6.4 4.7 4.1 85 1.0 NNW 2 6 1 3 1028.5 1028.7 0.0
18/08:00am 5.5 4.1 3.3 86 0.9 CALM 0 0 0 0 1028.7 1028.9 0.0
18/07:30am 5.3 3.8 3.0 85 1.0 CALM 0 0 0 0 1028.6 1028.8 0.0
18/07:00am 5.1 2.8 3.0 86 0.9 SW 4 7 2 4 1028.5 1028.7 0.0
18/06:30am 4.7 2.3 2.2 84 1.0 WSW 4 9 2 5 1028.3 1028.4 0.0
18/06:00am 4.5 2.5 2.5 87 0.8 W 2 4 1 2 1028.0 1028.1 0.0
18/05:30am 3.7 2.0 1.6 86 0.8 CALM 0 0 0 0 1027.8 1027.9 0.0
18/05:00am 3.8 2.0 1.4 84 0.9 CALM 0 0 0 0 1028.0 1028.1 0.0
18/04:30am 3.9 2.1 1.4 84 1.0 CALM 0 0 0 0 1028.0 1028.1 0.0
18/04:00am 4.8 2.7 2.0 82 1.1 SE 2 4 1 2 1027.8 1027.9 0.0
18/03:30am 4.3 2.5 1.3 81 1.2 CALM 0 0 0 0 1028.0 1028.1 0.0
18/03:00am 3.7 1.8 0.6 80 1.2 CALM 0 0 0 0 1028.1 1028.2 0.0
18/02:30am 3.7 1.7 0.2 78 1.3 CALM 0 0 0 0 1028.4 1028.5 0.0
18/02:00am 4.5 2.6 0.8 77 1.4 CALM 0 0 0 0 1028.2 1028.3 0.0
18/01:30am 4.0 2.0 0.0 75 1.5 CALM 0 0 0 0 1028.4 1028.5 0.0
18/01:00am 5.4 3.5 0.4 70 2.0 CALM 0 0 0 0 1028.5 1028.7 0.0
18/12:30am 5.5 3.8 1.6 76 1.6 CALM 0 0 0 0 1028.7 1028.9 0.0
18/12:00am 4.3 2.5 1.3 81 1.2 CALM 0 0 0 0 1029.2 1029.3 0.0
 
Date/Time
WST
Temp
°C
App
Temp
°C
Dew
Point
°C
Rel
Hum
%
Delta-T
°C
Wind Press
QNH
hPa
Press
MSL
hPa
Rain since
9am
mm
Dir  Spd
km/h
Gust
km/h
Spd
kts
Gust
kts
17/11:30pm 4.5 2.1 -0.1 72 1.8 SSW 2 13 1 7 1029.4 1029.5 0.0
17/11:00pm 6.9 5.1 1.2 67 2.3 CALM 0 0 0 0 1029.4 1029.5 0.0
17/10:30pm 6.6 4.8 1.3 69 2.2 CALM 0 0 0 0 1029.8 1029.9 0.0
17/10:00pm 6.7 4.9 1.4 69 2.2 CALM 0 0 0 0 1029.7 1029.8 0.0
17/09:30pm 7.1 4.1 1.8 69 2.2 SW 7 7 4 4 1029.7 1029.8 0.0
17/09:00pm 7.7 4.7 2.0 67 2.4 SW 7 9 4 5 1030.0 1030.1 0.0
17/08:30pm 8.0 4.9 1.6 64 2.7 SW 7 7 4 4 1030.0 1030.1 0.0
17/08:00pm 8.0 5.0 2.3 67 2.4 SW 7 7 4 4 1029.9 1030.0 0.0
17/07:30pm 8.3 5.5 1.9 64 2.7 SSW 6 7 3 4 1029.9 1030.0 0.0
17/07:00pm 9.0 6.2 2.1 62 2.9 S 6 7 3 4 1029.7 1029.8 0.0
17/06:30pm 9.8 7.1 2.6 61 3.1 S 6 9 3 5 1029.6 1029.7 0.0
17/06:00pm 9.8 7.9 2.9 62 3.0 SSW 2 6 1 3 1029.6 1029.7 0.0
17/05:30pm 10.3 7.4 2.7 59 3.3 SSE 7 9 4 5 1029.2 1029.3 0.0
17/05:00pm 11.2 8.4 2.2 54 3.9 S 6 9 3 5 1029.3 1029.4 0.0
17/04:30pm 11.7 8.7 2.2 52 4.2 S 7 11 4 6 1029.5 1029.6 0.0
17/04:00pm 12.1 8.4 2.6 52 4.2 SSW 11 15 6 8 1029.6 1029.7 0.0
17/03:30pm 12.5 9.5 1.8 48 4.7 SSW 7 15 4 8 1029.4 1029.5 0.0
17/03:00pm 12.6 9.7 1.3 46 4.9 SSW 6 9 3 5 1029.3 1029.4 0.0
17/02:30pm 12.0 9.9 1.9 50 4.4 S 2 4 1 2 1029.4 1029.5 0.0
17/02:00pm 11.7 8.0 2.2 52 4.1 SSE 11 15 6 8 1029.3 1029.4 0.0
17/01:30pm 11.8 8.5 2.5 53 4.1 SSW 9 13 5 7 1029.5 1029.6 0.0
17/01:00pm 11.9 8.2 2.4 52 4.2 ESE 11 15 6 8 1029.8 1029.9 0.0
17/12:30pm 12.3 9.1 3.3 54 4.1 ESE 9 13 5 7 1030.0 1030.1 0.0
17/12:00pm 11.5 7.5 2.8 55 3.8 SSE 13 19 7 10 1030.4 1030.5 0.0
17/11:30am 11.3 8.0 2.6 55 3.8 ESE 9 15 5 8 1030.6 1030.7 0.0
17/11:00am 11.3 7.6 2.1 53 4.0 ESE 11 17 6 9 1031.1 1031.3 0.0
17/10:30am 11.3 7.7 3.1 57 3.7 SE 11 17 6 9 1031.1 1031.3 0.0
17/10:00am 10.2 8.1 4.1 66 2.7 S 4 9 2 5 1031.4 1031.6 0.0
17/09:30am 9.6 7.3 5.0 73 2.1 S 6 13 3 7 1031.3 1031.5 0.0
17/09:00am 8.6 5.9 3.8 72 2.1 SW 7 11 4 6 1030.9 1031.0 0.6
17/08:30am 7.0 3.9 3.6 79 1.5 SW 9 9 5 5 1030.6 1030.7 0.6
17/08:00am 6.5 3.9 3.3 80 1.4 SSW 6 9 3 5 1030.3 1030.4 0.6
17/07:30am 5.3 2.0 2.7 83 1.1 SW 9 9 5 5 1029.7 1029.8 0.6
17/07:00am 4.9 2.1 1.9 81 1.2 SW 6 7 3 4 1029.6 1029.7 0.6
17/06:30am 5.5 2.3 2.8 83 1.1 WSW 9 11 5 6 1029.3 1029.4 0.6
17/06:00am 5.6 2.4 2.8 82 1.2 SW 9 9 5 5 1028.9 1029.0 0.6
17/05:30am 5.7 2.5 3.0 83 1.1 SW 9 11 5 6 1028.7 1028.9 0.6
17/05:00am 5.9 2.7 3.2 83 1.1 SW 9 13 5 7 1028.5 1028.7 0.6
17/04:30am 6.2 3.2 3.9 85 1.0 SW 9 11 5 6 1028.3 1028.4 0.6
17/04:00am 6.0 3.3 3.5 84 1.1 WSW 7 9 4 5 1028.1 1028.2 0.6
17/03:30am 7.0 3.7 4.5 84 1.1 SSW 11 15 6 8 1027.9 1028.0 0.6
17/03:00am 6.8 3.9 4.6 86 1.0 SW 9 13 5 7 1028.0 1028.1 0.6
17/02:30am 7.2 4.7 5.0 86 1.0 SW 7 11 4 6 1027.9 1028.0 0.4
17/02:00am 7.6 5.2 5.4 86 1.0 SW 7 9 4 5 1027.6 1027.7 0.4
17/01:30am 8.1 5.4 5.7 85 1.1 SSW 9 11 5 6 1027.4 1027.5 0.4
17/01:00am 8.7 6.3 6.8 88 0.9 SW 9 15 5 8 1027.4 1027.5 0.4
17/12:30am 8.9 7.0 6.9 87 1.0 SSW 6 9 3 5 1027.3 1027.4 0.4
17/12:00am 9.3 7.3 7.1 86 1.0 SSW 7 13 4 7 1027.1 1027.2 0.4
 
Date/Time
WST
Temp
°C
App
Temp
°C
Dew
Point
°C
Rel
Hum
%
Delta-T
°C
Wind Press
QNH
hPa
Press
MSL
hPa
Rain since
9am
mm
Dir  Spd
km/h
Gust
km/h
Spd
kts
Gust
kts
16/11:30pm 9.8 7.5 7.6 86 1.1 SSW 9 11 5 6 1027.0 1027.1 0.4
16/11:00pm 10.4 8.2 7.8 84 1.3 SSW 9 13 5 7 1026.8 1026.9 0.4
16/10:30pm 10.6 7.8 8.4 86 1.1 SSW 13 17 7 9 1026.9 1027.0 0.4
16/10:00pm 10.6 6.7 8.5 87 1.0 SW 19 28 10 15 1026.7 1026.8 0.4
16/09:30pm 10.7 8.7 8.6 87 1.1 W 9 11 5 6 1026.3 1026.4 0.4
16/09:00pm 10.5 8.0 8.3 86 1.1 W 11 13 6 7 1026.0 1026.1 0.4
16/08:30pm 10.6 8.1 8.4 86 1.1 W 11 13 6 7 1025.9 1026.0 0.4
16/08:00pm 10.9 8.9 8.5 85 1.2 W 9 13 5 7 1025.8 1025.8 0.4
16/07:30pm 11.0 8.9 8.4 84 1.3 W 9 11 5 6 1025.7 1025.7 0.4
16/07:00pm 11.7 9.8 8.9 83 1.4 W 9 11 5 6 1025.3 1025.4 0.4
16/06:30pm 12.0 9.0 9.2 83 1.4 W 15 20 8 11 1025.1 1025.2 0.4
16/06:00pm 12.1 10.3 9.3 83 1.4 WSW 9 13 5 7 1024.9 1025.0 0.4
16/05:30pm 13.0 10.4 9.3 78 1.9 W 13 19 7 10 1024.5 1024.6 0.0
16/05:00pm 13.1 11.2 9.2 77 2.0 WNW 9 15 5 8 1024.1 1024.2 0.0
16/04:30pm 13.8 10.8 9.3 74 2.3 WNW 15 20 8 11 1023.9 1024.0 0.0
16/04:00pm 13.8 10.8 9.3 74 2.3 WNW 15 20 8 11 1024.0 1024.1 0.0
16/03:30pm 14.2 10.2 9.2 72 2.6 WNW 20 30 11 16 1023.7 1023.8 0.0
16/03:00pm 14.0 9.8 9.8 76 2.2 W 22 32 12 17 1023.9 1024.0 0.0
16/02:30pm 13.8 10.2 9.8 77 2.1 WNW 19 28 10 15 1023.6 1023.7 0.0
16/02:00pm 13.0 9.8 10.0 82 1.6 W 17 22 9 12 1023.9 1024.0 0.0

Other formats

Comma delimited format used in spreadsheet applications
http://www.bom.gov.au/fwo/IDW60801/IDW60801.94641.axf

JavaScript Object Notation format (JSON) in row-major order
http://www.bom.gov.au/fwo/IDW60801/IDW60801.94641.json

Data quality

Most of these data are generated automatically and are frequently updated. Quality checks on data are not normally performed. It is possible for incorrect values to appear. Refer to information at About Latest Weather Observations and please check the disclaimer before using these data.